SWA1984 KBNA-KDCA
Flight info
| Callsign | SWA1984 |
|---|---|
| Flight time | N/A |
| Altitude | 39000 |
| Route | CHADM4 MUNNY TONIO Q34 SITTR TRUPS5 |
| Aircraft | B737/M-SDE2E3FGHIRWXY/LB1 |
Departure
| Time | N/A |
|---|---|
| Airport | Nashville International Airport (KBNA) |
Arrival
| Time | 2026-04-21 05:25 |
|---|---|
| Airport | Ronald Reagan Washington National Airport (KDCA) |
| Time | Latitude | Longitude | Altitude | Speed | Heading |
|---|---|---|---|---|---|
| 2026-04-21 04:55 | 38.07222 | -80.29785 | 37407 ft | 463 kts | 58° |
| 2026-04-21 04:55 | 38.09843 | -80.22319 | 37399 ft | 463 kts | 58° |
| 2026-04-21 04:56 | 38.12494 | -80.14869 | 37427 ft | 463 kts | 58° |
| 2026-04-21 04:56 | 38.15154 | -80.07395 | 37406 ft | 465 kts | 58° |
| 2026-04-21 04:57 | 38.17808 | -79.99899 | 37409 ft | 466 kts | 58° |
| 2026-04-21 04:57 | 38.20461 | -79.92379 | 37403 ft | 466 kts | 58° |
| 2026-04-21 04:58 | 38.23112 | -79.84844 | 37410 ft | 467 kts | 58° |
| 2026-04-21 04:58 | 38.25760 | -79.77303 | 37408 ft | 466 kts | 58° |
| 2026-04-21 04:59 | 38.28393 | -79.69762 | 37410 ft | 467 kts | 59° |
| 2026-04-21 04:59 | 38.30998 | -79.62191 | 37399 ft | 467 kts | 59° |
| 2026-04-21 05:00 | 38.33602 | -79.54599 | 36855 ft | 470 kts | 59° |
| 2026-04-21 05:00 | 38.34899 | -79.50808 | 36270 ft | 465 kts | 58° |
| 2026-04-21 05:00 | 38.37471 | -79.43281 | 34879 ft | 461 kts | 58° |
| 2026-04-21 05:01 | 38.38749 | -79.39541 | 34100 ft | 460 kts | 58° |
| 2026-04-21 05:01 | 38.40026 | -79.35804 | 33236 ft | 459 kts | 58° |
| 2026-04-21 05:01 | 38.41293 | -79.32083 | 32464 ft | 456 kts | 58° |
| 2026-04-21 05:01 | 38.42511 | -79.28381 | 31919 ft | 452 kts | 62° |
| 2026-04-21 05:02 | 38.43347 | -79.24506 | 31401 ft | 452 kts | 69° |
| 2026-04-21 05:02 | 38.43974 | -79.20601 | 30833 ft | 447 kts | 70° |
| 2026-04-21 05:02 | 38.44561 | -79.16735 | 30281 ft | 440 kts | 70° |
| 2026-04-21 05:02 | 38.45168 | -79.12941 | 29631 ft | 433 kts | 69° |
| 2026-04-21 05:03 | 38.45793 | -79.09272 | 29092 ft | 425 kts | 68° |
| 2026-04-21 05:03 | 38.46431 | -79.05628 | 28570 ft | 417 kts | 69° |
| 2026-04-21 05:03 | 38.47064 | -79.02044 | 28097 ft | 411 kts | 69° |
| 2026-04-21 05:03 | 38.47684 | -78.98508 | 27734 ft | 410 kts | 69° |
| 2026-04-21 05:04 | 38.48321 | -78.94901 | 27371 ft | 423 kts | 69° |
| 2026-04-21 05:04 | 38.48969 | -78.91196 | 26972 ft | 430 kts | 69° |
| 2026-04-21 05:04 | 38.49613 | -78.87469 | 26567 ft | 429 kts | 70° |
| 2026-04-21 05:04 | 38.50243 | -78.83765 | 26107 ft | 427 kts | 70° |
| 2026-04-21 05:05 | 38.50838 | -78.80049 | 25534 ft | 428 kts | 71° |
| 2026-04-21 05:05 | 38.51416 | -78.76319 | 24994 ft | 428 kts | 71° |
| 2026-04-21 05:05 | 38.51991 | -78.72602 | 24461 ft | 425 kts | 71° |
| 2026-04-21 05:05 | 38.52566 | -78.68916 | 23911 ft | 422 kts | 72° |
| 2026-04-21 05:06 | 38.53138 | -78.65262 | 23277 ft | 416 kts | 71° |
| 2026-04-21 05:06 | 38.53700 | -78.61700 | 23035 ft | 403 kts | 71° |
| 2026-04-21 05:06 | 38.54255 | -78.58217 | 22750 ft | 398 kts | 71° |
| 2026-04-21 05:06 | 38.54816 | -78.54735 | 22500 ft | 404 kts | 71° |
| 2026-04-21 05:07 | 38.55383 | -78.51205 | 22223 ft | 408 kts | 71° |
| 2026-04-21 05:07 | 38.55948 | -78.47660 | 21953 ft | 406 kts | 72° |
| 2026-04-21 05:07 | 38.56505 | -78.44136 | 21681 ft | 404 kts | 72° |
| 2026-04-21 05:07 | 38.57059 | -78.40626 | 21418 ft | 403 kts | 72° |
| 2026-04-21 05:08 | 38.57632 | -78.37117 | 20987 ft | 405 kts | 71° |
| 2026-04-21 05:08 | 38.58249 | -78.33603 | 20513 ft | 404 kts | 71° |
| 2026-04-21 05:08 | 38.58866 | -78.30113 | 20072 ft | 401 kts | 71° |
| 2026-04-21 05:08 | 38.59471 | -78.26652 | 19613 ft | 398 kts | 71° |
| 2026-04-21 05:09 | 38.60139 | -78.23246 | 19164 ft | 390 kts | 65° |
| 2026-04-21 05:09 | 38.61122 | -78.20064 | 18729 ft | 381 kts | 59° |
| 2026-04-21 05:09 | 38.61839 | -78.18024 | 18407 ft | 378 kts | 59° |
| 2026-04-21 05:09 | 38.62909 | -78.14964 | 17926 ft | 376 kts | 60° |
| 2026-04-21 05:10 | 38.63942 | -78.11881 | 17190 ft | 375 kts | 61° |
| 2026-04-21 05:10 | 38.64926 | -78.08846 | 16706 ft | 366 kts | 61° |
| 2026-04-21 05:10 | 38.65884 | -78.05858 | 16273 ft | 360 kts | 62° |
| 2026-04-21 05:10 | 38.66837 | -78.02888 | 15856 ft | 363 kts | 62° |
| 2026-04-21 05:11 | 38.67802 | -77.99889 | 15409 ft | 366 kts | 62° |
| 2026-04-21 05:11 | 38.68769 | -77.96876 | 14981 ft | 365 kts | 62° |
| 2026-04-21 05:11 | 38.69726 | -77.93885 | 14582 ft | 361 kts | 62° |
| 2026-04-21 05:11 | 38.70658 | -77.90973 | 14158 ft | 359 kts | 62° |
| 2026-04-21 05:12 | 38.71597 | -77.88033 | 13690 ft | 353 kts | 62° |
| 2026-04-21 05:12 | 38.72506 | -77.85180 | 13269 ft | 339 kts | 62° |
| 2026-04-21 05:12 | 38.73455 | -77.82511 | 12864 ft | 317 kts | 51° |
| 2026-04-21 05:12 | 38.74792 | -77.80433 | 12619 ft | 300 kts | 41° |
| 2026-04-21 05:13 | 38.76214 | -77.78454 | 12295 ft | 297 kts | 41° |
| 2026-04-21 05:13 | 38.77594 | -77.76523 | 11993 ft | 298 kts | 41° |
| 2026-04-21 05:13 | 38.78982 | -77.74549 | 11685 ft | 298 kts | 42° |
| 2026-04-21 05:13 | 38.80357 | -77.72574 | 11379 ft | 296 kts | 42° |
| 2026-04-21 05:14 | 38.81721 | -77.70604 | 11064 ft | 295 kts | 43° |
| 2026-04-21 05:14 | 38.82848 | -77.68375 | 10770 ft | 301 kts | 59° |
| 2026-04-21 05:14 | 38.83719 | -77.65940 | 10497 ft | 300 kts | 61° |
| 2026-04-21 05:14 | 38.84558 | -77.63500 | 10197 ft | 297 kts | 63° |
| 2026-04-21 05:15 | 38.84970 | -77.60916 | 9887 ft | 298 kts | 85° |
| 2026-04-21 05:15 | 38.84963 | -77.58240 | 9517 ft | 302 kts | 88° |
| 2026-04-21 05:15 | 38.84916 | -77.55545 | 9113 ft | 302 kts | 88° |
| 2026-04-21 05:15 | 38.84877 | -77.52869 | 8717 ft | 298 kts | 88° |
| 2026-04-21 05:16 | 38.84854 | -77.50242 | 8309 ft | 289 kts | 87° |
| 2026-04-21 05:16 | 38.84843 | -77.47706 | 7910 ft | 279 kts | 87° |
| 2026-04-21 05:16 | 38.84840 | -77.45256 | 7519 ft | 270 kts | 86° |
| 2026-04-21 05:16 | 38.84842 | -77.42879 | 7132 ft | 264 kts | 86° |
| 2026-04-21 05:17 | 38.84847 | -77.40520 | 6767 ft | 264 kts | 86° |
| 2026-04-21 05:17 | 38.84852 | -77.38163 | 6375 ft | 265 kts | 86° |
| 2026-04-21 05:17 | 38.84856 | -77.35800 | 5979 ft | 265 kts | 86° |
| 2026-04-21 05:17 | 38.84860 | -77.33445 | 5589 ft | 264 kts | 86° |
| 2026-04-21 05:18 | 38.84830 | -77.31122 | 5174 ft | 257 kts | 94° |
| 2026-04-21 05:18 | 38.84198 | -77.28977 | 4797 ft | 259 kts | 118° |
| 2026-04-21 05:18 | 38.83301 | -77.27005 | 4558 ft | 253 kts | 118° |
| 2026-04-21 05:18 | 38.82420 | -77.25082 | 4345 ft | 247 kts | 118° |
| 2026-04-21 05:19 | 38.81562 | -77.23203 | 4130 ft | 241 kts | 118° |
| 2026-04-21 05:19 | 38.80726 | -77.21364 | 3919 ft | 236 kts | 117° |
| 2026-04-21 05:19 | 38.79909 | -77.19558 | 3705 ft | 232 kts | 117° |
| 2026-04-21 05:19 | 38.79110 | -77.17790 | 3491 ft | 227 kts | 117° |
| 2026-04-21 05:20 | 38.78338 | -77.16082 | 3363 ft | 219 kts | 116° |
| 2026-04-21 05:20 | 38.77588 | -77.14427 | 3264 ft | 210 kts | 116° |
| 2026-04-21 05:20 | 38.76874 | -77.12848 | 3174 ft | 201 kts | 116° |
| 2026-04-21 05:20 | 38.75927 | -77.11560 | 3062 ft | 201 kts | 154° |
| 2026-04-21 05:21 | 38.74569 | -77.11245 | 2921 ft | 205 kts | 177° |
| 2026-04-21 05:21 | 38.73175 | -77.11012 | 2625 ft | 201 kts | 152° |
| 2026-04-21 05:21 | 38.72293 | -77.09788 | 2430 ft | 182 kts | 103° |
| 2026-04-21 05:21 | 38.72172 | -77.08232 | 2317 ft | 174 kts | 76° |
| 2026-04-21 05:22 | 38.72596 | -77.06812 | 2192 ft | 171 kts | 51° |
| 2026-04-21 05:22 | 38.73441 | -77.05769 | 2074 ft | 168 kts | 38° |
| 2026-04-21 05:22 | 38.74329 | -77.04819 | 1919 ft | 161 kts | 38° |
| 2026-04-21 05:22 | 38.75163 | -77.03928 | 1779 ft | 152 kts | 38° |
| 2026-04-21 05:23 | 38.75974 | -77.03131 | 1636 ft | 139 kts | 23° |
| 2026-04-21 05:23 | 38.76934 | -77.03062 | 1550 ft | 145 kts | 358° |
| 2026-04-21 05:23 | 38.77943 | -77.03041 | 1321 ft | 141 kts | 0° |
| 2026-04-21 05:23 | 38.78895 | -77.03136 | 1110 ft | 133 kts | 357° |
| 2026-04-21 05:24 | 38.79795 | -77.03233 | 982 ft | 127 kts | 357° |
| 2026-04-21 05:24 | 38.80698 | -77.03324 | 759 ft | 132 kts | 357° |
| 2026-04-21 05:24 | 38.81599 | -77.03415 | 612 ft | 127 kts | 356° |
| 2026-04-21 05:24 | 38.82484 | -77.03508 | 434 ft | 127 kts | 357° |
| 2026-04-21 05:25 | 38.83353 | -77.03594 | 240 ft | 124 kts | 357° |
| 2026-04-21 05:25 | 38.84197 | -77.03681 | 66 ft | 120 kts | 357° |
| 2026-04-21 05:25 | 38.84965 | -77.03758 | 23 ft | 89 kts | 354° |
| 2026-04-21 05:25 | 38.85231 | -77.03788 | 23 ft | 9 kts | 336° |
| 2026-04-21 05:26 | 38.85258 | -77.03869 | 22 ft | 10 kts | 272° |
| 2026-04-21 05:26 | 38.85226 | -77.03911 | 24 ft | 7 kts | 199° |
| 2026-04-21 05:26 | 38.85172 | -77.03921 | 24 ft | 8 kts | 192° |
| 2026-04-21 05:26 | 38.85111 | -77.03919 | 24 ft | 10 kts | 173° |
| 2026-04-21 05:27 | 38.85037 | -77.03906 | 27 ft | 12 kts | 172° |
| 2026-04-21 05:27 | 38.84949 | -77.03897 | 24 ft | 14 kts | 177° |
| 2026-04-21 05:27 | 38.84877 | -77.03924 | 25 ft | 12 kts | 229° |
| 2026-04-21 05:27 | 38.84795 | -77.03947 | 24 ft | 13 kts | 187° |
| 2026-04-21 05:28 | 38.84704 | -77.03994 | 26 ft | 15 kts | 205° |
| 2026-04-21 05:28 | 38.84622 | -77.04049 | 24 ft | 11 kts | 219° |
| 2026-04-21 05:28 | 38.84619 | -77.04098 | 23 ft | 5 kts | 324° |
| 2026-04-21 05:28 | 38.84662 | -77.04125 | 24 ft | 9 kts | 335° |
| 2026-04-21 05:29 | 38.84730 | -77.04162 | 26 ft | 11 kts | 336° |
| 2026-04-21 05:29 | 38.84753 | -77.04186 | 23 ft | 4 kts | 289° |
| 2026-04-21 05:29 | 38.84738 | -77.04212 | 23 ft | 5 kts | 225° |
| 2026-04-21 05:29 | 38.84730 | -77.04222 | 23 ft | 0 kts | 225° |